createdAt,value
2023-04-03T00:01:14.973Z,81.00
2023-04-03T00:03:43.439Z,81.60
2023-04-03T00:06:12.874Z,81.20
2023-04-03T00:08:41.693Z,81.10
2023-04-03T00:11:11.551Z,80.80
2023-04-03T00:13:40.428Z,81.40
2023-04-03T00:16:09.507Z,80.80
2023-04-03T00:18:38.649Z,80.40
2023-04-03T00:21:07.004Z,80.40
2023-04-03T00:23:35.442Z,80.60
2023-04-03T00:26:03.341Z,79.40
2023-04-03T00:28:31.059Z,79.90
2023-04-03T00:30:58.833Z,79.70
2023-04-03T00:33:26.598Z,79.90
2023-04-03T00:35:54.464Z,80.40
2023-04-03T00:38:22.224Z,79.50
2023-04-03T00:40:50.591Z,80.00
2023-04-03T00:43:22.370Z,79.90
2023-04-03T00:45:52.697Z,79.40
2023-04-03T00:48:41.487Z,79.50
2023-04-03T00:51:13.841Z,79.50
2023-04-03T00:53:48.721Z,79.60
2023-04-03T00:56:18.957Z,79.40
2023-04-03T00:58:56.457Z,79.40
2023-04-03T01:01:26.322Z,79.00
2023-04-03T01:03:54.195Z,78.40
2023-04-03T01:06:27.497Z,78.50
2023-04-03T01:08:56.363Z,77.80
2023-04-03T01:11:24.199Z,78.80
2023-04-03T01:13:52.182Z,79.10
2023-04-03T01:16:20.838Z,78.50
2023-04-03T01:18:48.625Z,78.60
2023-04-03T01:21:49.434Z,79.40
2023-04-03T01:24:31.608Z,79.00
2023-04-03T01:27:02.249Z,78.40
2023-04-03T01:29:29.851Z,77.90
2023-04-03T01:32:00.184Z,78.20
2023-04-03T01:34:29.434Z,78.40
2023-04-03T01:36:57.508Z,78.00
2023-04-03T01:39:25.267Z,78.50
2023-04-03T01:41:53.171Z,78.00
2023-04-03T01:44:32.040Z,77.90
2023-04-03T01:46:59.714Z,77.80
2023-04-03T01:49:29.524Z,78.60
2023-04-03T01:51:58.325Z,78.30
2023-04-03T01:54:25.961Z,78.30
2023-04-03T01:56:54.152Z,78.40
2023-04-03T01:59:23.322Z,78.50
2023-04-03T02:01:52.066Z,79.20
2023-04-03T02:04:19.741Z,78.60
2023-04-03T02:06:47.441Z,78.60
2023-04-03T02:09:15.367Z,79.20
2023-04-03T02:11:43.032Z,78.60
2023-04-03T02:14:11.654Z,79.00
2023-04-03T02:16:39.865Z,80.30
2023-04-03T02:19:07.625Z,78.60
2023-04-03T02:21:35.287Z,79.20
2023-04-03T02:24:02.886Z,79.20
2023-04-03T02:26:30.507Z,78.90
2023-04-03T02:28:58.364Z,78.80
2023-04-03T02:31:26.345Z,79.70
2023-04-03T02:33:54.571Z,79.40
2023-04-03T02:36:22.237Z,79.30
2023-04-03T02:38:54.953Z,79.60
2023-04-03T02:41:22.672Z,80.20
2023-04-03T02:43:52.693Z,79.20
2023-04-03T02:46:20.370Z,78.80
2023-04-03T02:48:48.011Z,79.80
2023-04-03T02:51:15.588Z,78.50
2023-04-03T02:53:43.369Z,79.00
2023-04-03T02:56:16.222Z,78.80
2023-04-03T02:58:44.080Z,79.20
2023-04-03T03:01:12.869Z,78.60
2023-04-03T03:03:41.159Z,79.00
2023-04-03T03:06:14.968Z,79.40
2023-04-03T03:08:43.164Z,79.20
2023-04-03T03:11:11.613Z,79.10
2023-04-03T03:13:40.997Z,79.00
2023-04-03T03:16:09.422Z,79.30
2023-04-03T03:18:37.447Z,79.40
2023-04-03T03:21:05.512Z,79.10
2023-04-03T03:23:33.889Z,79.90
2023-04-03T03:26:05.253Z,79.10
2023-04-03T03:28:37.483Z,79.40
2023-04-03T03:31:07.374Z,79.50
2023-04-03T03:33:36.662Z,79.70
2023-04-03T03:36:04.487Z,80.00
2023-04-03T03:38:32.323Z,80.00
2023-04-03T03:41:02.409Z,80.70
2023-04-03T03:43:31.913Z,79.80
2023-04-03T03:45:59.596Z,80.00
2023-04-03T03:48:28.440Z,80.20
2023-04-03T03:50:57.242Z,80.80
2023-04-03T03:53:29.272Z,80.10
2023-04-03T03:56:01.220Z,80.40
2023-04-03T03:58:31.171Z,80.40
2023-04-03T04:01:02.987Z,81.40
2023-04-03T04:03:31.539Z,81.00
2023-04-03T04:05:59.395Z,82.00
2023-04-03T04:08:27.145Z,81.90
2023-04-03T04:10:54.933Z,81.20
2023-04-03T04:13:22.580Z,82.20
2023-04-03T04:15:50.746Z,82.60
2023-04-03T04:18:21.244Z,82.80
2023-04-03T04:20:50.121Z,82.50
2023-04-03T04:23:20.020Z,83.00
2023-04-03T04:25:49.974Z,83.70
2023-04-03T04:28:18.824Z,83.40
2023-04-03T04:30:48.704Z,83.20
2023-04-03T04:33:18.116Z,83.60
2023-04-03T04:35:49.250Z,83.80
2023-04-03T04:38:18.662Z,83.90
2023-04-03T04:40:46.524Z,84.30
2023-04-03T04:43:15.591Z,84.40
2023-04-03T04:45:45.356Z,84.70
2023-04-03T04:48:13.533Z,84.70
2023-04-03T04:50:41.526Z,84.60
2023-04-03T04:53:09.695Z,84.60
2023-04-03T04:55:37.736Z,84.30
2023-04-03T04:58:05.783Z,84.60
2023-04-03T05:00:33.523Z,85.20
2023-04-03T05:03:01.513Z,84.30
2023-04-03T05:05:29.772Z,84.40
2023-04-03T05:07:57.577Z,83.70
2023-04-03T05:10:25.271Z,83.60
2023-04-03T05:12:53.798Z,83.70
2023-04-03T05:15:21.589Z,83.90
2023-04-03T05:17:52.265Z,84.10
2023-04-03T05:20:20.206Z,83.30
2023-04-03T05:22:49.370Z,82.90
2023-04-03T05:25:17.258Z,82.50
2023-04-03T05:27:45.901Z,82.70
2023-04-03T05:30:13.981Z,82.40
2023-04-03T05:32:43.451Z,81.10
2023-04-03T05:35:19.205Z,81.00
2023-04-03T05:37:50.020Z,80.90
2023-04-03T05:40:19.726Z,81.10
2023-04-03T05:42:50.666Z,80.80
2023-04-03T05:45:19.964Z,80.80
2023-04-03T05:47:48.676Z,81.00
2023-04-03T05:50:16.513Z,80.50
2023-04-03T05:52:47.162Z,80.40
2023-04-03T05:55:16.572Z,79.70
2023-04-03T05:57:44.283Z,79.60
2023-04-03T06:00:16.771Z,79.80
2023-04-03T06:02:50.770Z,78.40
2023-04-03T06:05:23.728Z,78.60
2023-04-03T06:07:52.045Z,78.70
2023-04-03T06:10:21.277Z,78.40
2023-04-03T06:12:49.362Z,79.20
2023-04-03T06:15:18.118Z,77.80
2023-04-03T06:17:46.243Z,77.50
2023-04-03T06:20:14.848Z,78.50
2023-04-03T06:22:43.105Z,77.50
2023-04-03T06:25:13.755Z,77.70
2023-04-03T06:27:41.780Z,79.20
2023-04-03T06:30:09.669Z,76.90
2023-04-03T06:32:37.346Z,76.40
2023-04-03T06:35:06.351Z,77.20
2023-04-03T06:37:34.134Z,77.10
2023-04-03T06:40:02.523Z,75.70
2023-04-03T06:42:30.445Z,75.80
2023-04-03T06:45:18.682Z,75.80
2023-04-03T06:47:46.535Z,75.70
2023-04-03T06:50:15.761Z,75.40
2023-04-03T06:52:43.526Z,75.90
2023-04-03T06:55:11.484Z,75.60
2023-04-03T06:57:39.184Z,76.10
2023-04-03T07:00:08.301Z,75.40
2023-04-03T07:02:36.025Z,75.40
2023-04-03T07:05:04.086Z,75.00
2023-04-03T07:07:31.860Z,74.40
2023-04-03T07:09:59.538Z,74.10
2023-04-03T07:12:27.503Z,74.00
2023-04-03T07:14:55.324Z,73.50
2023-04-03T07:17:23.266Z,71.10
2023-04-03T07:19:51.087Z,71.30
2023-04-03T07:22:19.036Z,72.30
2023-04-03T07:24:47.248Z,69.60
2023-04-03T07:27:15.056Z,67.60
2023-04-03T07:29:42.616Z,68.50
2023-04-03T07:32:10.802Z,67.30
2023-04-03T07:34:38.511Z,66.40
2023-04-03T07:37:06.311Z,66.90
2023-04-03T07:39:34.202Z,67.30
2023-04-03T07:42:02.909Z,66.50
2023-04-03T07:44:31.141Z,67.30
2023-04-03T07:46:58.829Z,66.00
2023-04-03T07:49:27.251Z,66.20
2023-04-03T07:51:55.524Z,64.90
2023-04-03T07:54:23.263Z,63.80
2023-04-03T07:56:51.237Z,64.10
2023-04-03T07:59:18.959Z,63.90
2023-04-03T08:01:46.838Z,64.30
2023-04-03T08:04:14.641Z,62.40
2023-04-03T08:06:46.986Z,65.30
2023-04-03T08:09:16.660Z,63.40
2023-04-03T08:11:45.562Z,61.70
2023-04-03T08:14:17.916Z,64.20
2023-04-03T08:16:47.774Z,61.40
2023-04-03T08:19:25.523Z,60.90
2023-04-03T08:21:56.333Z,62.60
2023-04-03T08:24:24.009Z,59.20
2023-04-03T08:26:51.810Z,63.00
2023-04-03T08:29:19.532Z,61.40
2023-04-03T08:31:47.811Z,58.70
2023-04-03T08:34:15.749Z,60.50
2023-04-03T08:36:44.048Z,59.60
2023-04-03T08:39:11.847Z,59.80
2023-04-03T08:41:43.604Z,60.80
2023-04-03T08:44:39.997Z,58.90
2023-04-03T08:47:25.577Z,59.50
2023-04-03T08:49:58.754Z,58.20
2023-04-03T08:52:41.037Z,59.20
2023-04-03T08:55:20.826Z,60.30
2023-04-03T08:57:51.761Z,59.10
2023-04-03T09:00:26.768Z,59.20
2023-04-03T09:02:56.983Z,58.80
2023-04-03T09:05:44.219Z,61.00
2023-04-03T09:08:29.611Z,59.20
2023-04-03T09:11:17.797Z,60.40
2023-04-03T09:13:48.690Z,59.40
2023-04-03T09:16:39.128Z,60.00
2023-04-03T09:19:33.932Z,59.50
2023-04-03T09:22:14.431Z,59.90
2023-04-03T09:24:43.240Z,59.70
2023-04-03T09:27:13.250Z,60.20
2023-04-03T09:29:47.138Z,60.80
2023-04-03T09:32:28.936Z,59.30
2023-04-03T09:35:24.964Z,58.80
2023-04-03T09:38:02.065Z,58.60
2023-04-03T09:40:36.461Z,58.70
2023-04-03T09:43:31.602Z,59.50
2023-04-03T09:46:20.700Z,59.70
2023-04-03T09:49:08.819Z,59.10
2023-04-03T09:51:38.560Z,60.60
2023-04-03T09:54:31.757Z,59.90
2023-04-03T09:57:02.560Z,60.00
2023-04-03T09:59:32.285Z,58.30
2023-04-03T10:02:18.758Z,57.80
2023-04-03T10:04:48.954Z,57.50
2023-04-03T10:07:31.261Z,59.10
2023-04-03T10:10:02.903Z,59.50
2023-04-03T10:12:31.111Z,57.60
2023-04-03T10:15:01.606Z,58.60
2023-04-03T10:17:50.304Z,58.30
2023-04-03T10:20:33.892Z,59.20
2023-04-03T10:23:21.529Z,58.90
2023-04-03T10:25:57.347Z,60.90
2023-04-03T10:28:56.076Z,59.40
2023-04-03T10:31:49.698Z,57.70
2023-04-03T10:34:34.640Z,59.20
2023-04-03T10:37:27.275Z,58.10
2023-04-03T10:40:13.692Z,59.30
2023-04-03T10:42:46.312Z,58.40
2023-04-03T10:45:22.834Z,58.70
2023-04-03T10:48:17.241Z,58.00
2023-04-03T10:51:07.456Z,57.90
2023-04-03T10:53:57.698Z,58.50
2023-04-03T10:56:43.756Z,59.00
2023-04-03T10:59:18.486Z,59.70
2023-04-03T11:01:54.929Z,57.60
2023-04-03T11:04:26.946Z,57.90
2023-04-03T11:07:13.692Z,57.70
2023-04-03T11:09:47.696Z,58.70
2023-04-03T11:12:37.503Z,58.70
2023-04-03T11:15:06.729Z,59.30
2023-04-03T11:17:45.357Z,58.80
2023-04-03T11:20:28.642Z,59.30
2023-04-03T11:23:25.655Z,57.90
2023-04-03T11:26:01.934Z,58.80
2023-04-03T11:28:29.582Z,60.10
2023-04-03T11:30:58.230Z,57.70
2023-04-03T11:33:32.474Z,59.40
2023-04-03T11:36:22.929Z,58.50
2023-04-03T11:38:58.450Z,59.20
2023-04-03T11:41:29.912Z,58.80
2023-04-03T11:44:07.710Z,60.60
2023-04-03T11:46:52.821Z,60.10
2023-04-03T11:50:00.843Z,58.60
2023-04-03T11:52:49.770Z,58.10
2023-04-03T11:55:23.689Z,58.80
2023-04-03T11:58:00.644Z,58.20
2023-04-03T12:00:53.272Z,58.10
2023-04-03T12:03:27.352Z,59.10
2023-04-03T12:06:15.033Z,58.20
2023-04-03T12:08:42.817Z,57.60
2023-04-03T12:11:10.800Z,60.50
2023-04-03T12:13:51.923Z,59.70
2023-04-03T12:16:35.189Z,58.70
2023-04-03T12:19:41.236Z,58.30
2023-04-03T12:22:17.007Z,58.00
2023-04-03T12:24:48.403Z,57.70
2023-04-03T12:27:40.076Z,57.00
2023-04-03T12:30:28.868Z,57.70
2023-04-03T12:33:21.571Z,57.40
2023-04-03T12:35:55.571Z,56.30
2023-04-03T12:38:48.517Z,56.40
2023-04-03T12:41:40.960Z,57.10
2023-04-03T12:44:24.799Z,58.20
2023-04-03T12:46:54.022Z,58.20
2023-04-03T12:49:33.822Z,60.00
2023-04-03T12:52:03.802Z,59.00
2023-04-03T12:54:40.990Z,57.80
2023-04-03T12:57:19.385Z,58.50
2023-04-03T12:59:48.297Z,58.00
2023-04-03T13:02:28.569Z,58.90
2023-04-03T13:04:59.398Z,59.50
2023-04-03T13:07:34.845Z,57.70
2023-04-03T13:10:08.890Z,58.40
2023-04-03T13:12:46.949Z,58.60
2023-04-03T13:15:30.606Z,58.70
2023-04-03T13:17:58.797Z,57.90
2023-04-03T13:20:30.046Z,58.80
2023-04-03T13:23:05.630Z,58.40
2023-04-03T13:25:36.216Z,59.20
2023-04-03T13:28:13.385Z,59.10
2023-04-03T13:30:55.069Z,59.30
2023-04-03T13:33:26.581Z,61.40
2023-04-03T13:36:29.212Z,61.40
2023-04-03T13:39:01.981Z,60.60
2023-04-03T13:41:38.952Z,60.60
2023-04-03T13:44:37.163Z,61.60
2023-04-03T13:47:24.071Z,60.60
2023-04-03T13:50:13.722Z,62.60
2023-04-03T13:52:54.089Z,62.00
2023-04-03T13:55:34.701Z,61.30
2023-04-03T13:58:08.766Z,60.60
2023-04-03T14:00:39.620Z,59.60
2023-04-03T14:03:32.976Z,60.10
2023-04-03T14:06:02.292Z,61.00
2023-04-03T14:08:42.182Z,60.70
2023-04-03T14:11:25.292Z,61.30
2023-04-03T14:13:53.040Z,61.90
2023-04-03T14:16:24.509Z,62.50
2023-04-03T14:18:53.289Z,63.30
2023-04-03T14:21:22.552Z,62.30
2023-04-03T14:23:51.269Z,63.70
2023-04-03T14:26:22.535Z,62.30
2023-04-03T14:28:56.662Z,63.10
2023-04-03T14:31:25.993Z,63.20
2023-04-03T14:33:53.741Z,63.80
2023-04-03T14:36:26.453Z,62.60
2023-04-03T14:38:55.884Z,62.70
2023-04-03T14:41:25.442Z,63.30
2023-04-03T14:43:54.029Z,63.10
2023-04-03T14:46:45.491Z,62.90
2023-04-03T14:49:24.850Z,61.70
2023-04-03T14:51:53.873Z,62.60
2023-04-03T14:54:26.697Z,62.60
2023-04-03T14:56:56.821Z,62.80
2023-04-03T14:59:25.047Z,63.00
2023-04-03T15:01:52.690Z,61.50
2023-04-03T15:04:22.559Z,62.90
2023-04-03T15:06:51.001Z,62.40
2023-04-03T15:09:25.235Z,61.90
2023-04-03T15:11:54.936Z,61.90
2023-04-03T15:14:35.595Z,61.90
2023-04-03T15:17:07.075Z,61.10
2023-04-03T15:19:39.198Z,61.00
2023-04-03T15:22:07.129Z,60.70
2023-04-03T15:24:34.813Z,60.60
2023-04-03T15:27:03.115Z,60.90
2023-04-03T15:29:31.058Z,60.60
2023-04-03T15:31:58.864Z,60.80
2023-04-03T15:34:26.512Z,61.10
2023-04-03T15:36:54.241Z,60.30
2023-04-03T15:39:22.330Z,59.90
2023-04-03T15:41:50.002Z,61.10
2023-04-03T15:44:18.789Z,60.40
2023-04-03T15:46:48.076Z,60.90
2023-04-03T15:49:16.139Z,60.80
2023-04-03T15:51:43.970Z,61.60
2023-04-03T15:54:11.899Z,61.50
2023-04-03T15:56:39.623Z,61.70
2023-04-03T15:59:07.329Z,61.60
2023-04-03T16:01:35.335Z,61.20
2023-04-03T16:04:03.144Z,62.10
2023-04-03T16:06:31.702Z,61.60
2023-04-03T16:08:59.416Z,62.20
2023-04-03T16:11:27.329Z,62.60
2023-04-03T16:13:55.742Z,61.70
2023-04-03T16:16:25.836Z,62.00
2023-04-03T16:18:56.294Z,62.70
2023-04-03T16:21:24.380Z,62.40
2023-04-03T16:23:52.172Z,61.80
2023-04-03T16:26:20.072Z,61.40
2023-04-03T16:28:47.807Z,61.90
2023-04-03T16:31:15.640Z,62.10
2023-04-03T16:33:43.403Z,62.60
2023-04-03T16:36:11.561Z,62.20
2023-04-03T16:38:39.413Z,62.50
2023-04-03T16:41:07.139Z,62.70
2023-04-03T16:43:36.434Z,62.90
2023-04-03T16:46:04.410Z,62.90
2023-04-03T16:48:32.496Z,61.90
2023-04-03T16:51:00.543Z,62.90
2023-04-03T16:53:29.508Z,63.20
2023-04-03T16:55:59.270Z,62.80
2023-04-03T16:58:27.259Z,62.40
2023-04-03T17:00:56.905Z,62.50
2023-04-03T17:03:26.939Z,63.60
2023-04-03T17:05:54.967Z,63.20
2023-04-03T17:08:22.685Z,63.30
2023-04-03T17:10:52.890Z,63.20
2023-04-03T17:13:20.597Z,63.70
2023-04-03T17:15:48.353Z,63.10
2023-04-03T17:18:16.238Z,63.40
2023-04-03T17:20:43.981Z,63.90
2023-04-03T17:23:11.619Z,64.50
2023-04-03T17:25:40.170Z,64.50
2023-04-03T17:28:08.535Z,63.80
2023-04-03T17:30:36.200Z,64.00
2023-04-03T17:33:04.165Z,63.80
2023-04-03T17:35:31.905Z,64.80
2023-04-03T17:38:00.106Z,64.70
2023-04-03T17:40:29.118Z,64.80
2023-04-03T17:42:56.985Z,64.10
2023-04-03T17:45:24.721Z,64.50
2023-04-03T17:47:53.296Z,64.90
2023-04-03T17:50:21.641Z,64.70
2023-04-03T17:52:49.738Z,64.20
2023-04-03T17:55:18.128Z,64.50
2023-04-03T17:57:46.163Z,65.50
2023-04-03T18:00:16.313Z,64.90
2023-04-03T18:02:48.483Z,64.20
2023-04-03T18:05:19.326Z,64.30
2023-04-03T18:07:47.990Z,64.20
2023-04-03T18:10:17.629Z,63.50
2023-04-03T18:12:46.695Z,63.50
2023-04-03T18:15:15.284Z,64.10
2023-04-03T18:17:43.440Z,64.60
2023-04-03T18:20:15.037Z,63.90
2023-04-03T18:22:43.636Z,63.80
2023-04-03T18:25:14.915Z,64.40
2023-04-03T18:27:44.142Z,65.80
2023-04-03T18:30:16.193Z,64.40
2023-04-03T18:32:45.712Z,64.10
2023-04-03T18:35:15.391Z,64.60
2023-04-03T18:37:44.017Z,64.10
2023-04-03T18:40:14.777Z,64.40
2023-04-03T18:42:44.701Z,63.80
2023-04-03T18:45:24.559Z,63.40
2023-04-03T18:47:53.683Z,63.30
2023-04-03T18:50:23.185Z,63.60
2023-04-03T18:52:51.943Z,63.00
2023-04-03T18:55:20.830Z,64.10
2023-04-03T18:57:50.104Z,61.70
2023-04-03T19:00:21.835Z,60.90
2023-04-03T19:02:52.329Z,60.10
2023-04-03T19:05:22.795Z,61.70
2023-04-03T19:07:51.106Z,60.20
2023-04-03T19:10:20.316Z,60.90
2023-04-03T19:12:51.967Z,60.30
2023-04-03T19:15:22.926Z,60.50
2023-04-03T19:17:52.627Z,60.10
2023-04-03T19:20:22.602Z,60.50
2023-04-03T19:22:51.596Z,59.60
2023-04-03T19:25:21.052Z,60.50
2023-04-03T19:27:52.264Z,60.80
2023-04-03T19:30:21.506Z,59.90
2023-04-03T19:32:50.325Z,60.10
2023-04-03T19:35:19.413Z,59.40
2023-04-03T19:37:51.545Z,59.50
2023-04-03T19:40:23.335Z,59.30
2023-04-03T19:42:53.880Z,59.90
2023-04-03T19:45:23.505Z,59.80
2023-04-03T19:47:56.429Z,60.20
2023-04-03T19:50:25.103Z,61.10
2023-04-03T19:52:53.421Z,60.10
2023-04-03T19:55:21.653Z,59.70
2023-04-03T19:57:49.923Z,59.80
2023-04-03T20:00:21.034Z,60.70
2023-04-03T20:02:51.200Z,60.60
2023-04-03T20:05:19.604Z,59.80
2023-04-03T20:07:49.565Z,59.80
2023-04-03T20:10:18.162Z,59.70
2023-04-03T20:12:46.441Z,60.20
2023-04-03T20:15:14.855Z,60.00
2023-04-03T20:17:42.919Z,60.90
2023-04-03T20:20:12.739Z,61.90
2023-04-03T20:22:41.329Z,61.10
2023-04-03T20:25:23.659Z,60.60
2023-04-03T20:28:03.687Z,60.80
2023-04-03T20:30:31.777Z,60.90
2023-04-03T20:32:59.632Z,60.80
2023-04-03T20:35:28.979Z,60.80
2023-04-03T20:37:57.710Z,61.80
2023-04-03T20:40:26.581Z,62.10
2023-04-03T20:42:55.674Z,61.90
2023-04-03T20:45:24.902Z,61.90
2023-04-03T20:47:54.067Z,62.10
2023-04-03T20:50:22.371Z,62.50
2023-04-03T20:52:50.224Z,62.40
2023-04-03T20:55:18.507Z,61.80
2023-04-03T20:57:54.248Z,61.30
2023-04-03T21:00:23.557Z,61.80
2023-04-03T21:02:51.244Z,63.00
2023-04-03T21:05:27.349Z,63.40
2023-04-03T21:08:36.051Z,62.50
2023-04-03T21:11:41.460Z,63.00
2023-04-03T21:14:47.511Z,63.00
2023-04-03T21:17:15.063Z,63.40
2023-04-03T21:19:46.661Z,63.40
2023-04-03T21:22:16.314Z,63.40
2023-04-03T21:24:44.758Z,63.70
2023-04-03T21:27:12.530Z,63.90
2023-04-03T21:29:40.694Z,63.70
2023-04-03T21:32:08.583Z,64.00
2023-04-03T21:34:36.456Z,64.00
2023-04-03T21:37:06.099Z,64.10
2023-04-03T21:39:34.121Z,64.00
2023-04-03T21:42:02.044Z,64.30
2023-04-03T21:44:30.155Z,64.10
2023-04-03T21:46:58.605Z,64.30
2023-04-03T21:49:27.301Z,64.40
2023-04-03T21:51:55.306Z,64.70
2023-04-03T21:54:24.525Z,64.50
2023-04-03T21:56:52.554Z,64.70
2023-04-03T21:59:20.563Z,64.60
2023-04-03T22:01:48.401Z,64.30
2023-04-03T22:04:16.613Z,65.20
2023-04-03T22:06:45.850Z,65.00
2023-04-03T22:09:13.777Z,64.50
2023-04-03T22:11:45.881Z,64.90
2023-04-03T22:14:13.877Z,65.40
2023-04-03T22:16:41.547Z,65.60
2023-04-03T22:19:09.300Z,65.90
2023-04-03T22:21:37.217Z,67.10
2023-04-03T22:24:05.404Z,67.20
2023-04-03T22:26:33.104Z,66.80
2023-04-03T22:29:00.944Z,67.30
2023-04-03T22:31:28.746Z,67.10
2023-04-03T22:33:56.387Z,66.30
2023-04-03T22:36:23.954Z,66.80
2023-04-03T22:38:51.924Z,65.90
2023-04-03T22:41:19.756Z,67.20
2023-04-03T22:43:47.533Z,68.50
2023-04-03T22:46:15.420Z,68.60
2023-04-03T22:48:43.641Z,68.30
2023-04-03T22:51:14.426Z,68.20
2023-04-03T22:53:42.215Z,68.60
2023-04-03T22:56:11.343Z,68.00
2023-04-03T22:58:39.348Z,68.60
2023-04-03T23:01:12.076Z,68.90
2023-04-03T23:03:41.429Z,70.60
2023-04-03T23:06:10.266Z,69.60
2023-04-03T23:08:39.180Z,70.00
2023-04-03T23:11:07.865Z,69.80
2023-04-03T23:13:36.109Z,69.20
2023-04-03T23:16:04.825Z,68.50
2023-04-03T23:18:33.175Z,67.50
2023-04-03T23:21:04.150Z,67.80
2023-04-03T23:23:32.766Z,67.70
2023-04-03T23:26:02.277Z,67.60
2023-04-03T23:28:30.730Z,68.10
2023-04-03T23:31:00.451Z,68.10
2023-04-03T23:33:29.023Z,68.10
2023-04-03T23:35:58.803Z,68.10
2023-04-03T23:38:27.093Z,68.20
2023-04-03T23:40:54.730Z,68.60
2023-04-03T23:43:22.736Z,68.60
2023-04-03T23:45:50.694Z,68.70
2023-04-03T23:48:18.357Z,68.70
2023-04-03T23:50:46.079Z,68.50
2023-04-03T23:53:13.767Z,69.20
2023-04-03T23:55:42.416Z,69.00
2023-04-03T23:58:11.090Z,68.70
